Time;durP1;ratioP1;P1;durP2;ratioP2;P2;SDS_P1;SDS_P2;PMS_P1;PMS_P2;Temp;Humidity;BMP_temperature;BMP_pressure;BME280_temperature;BME280_humidity;BME280_pressure;Samples;Min_cycle;Max_cycle;Signal;HPM_P1;HPM_P2
2023/11/29 06:02:39;;;;;;;;;;;;;;;;;;4934133;23;19926;-42
2023/11/29 06:05:05;;;;;;;;;;;;;;;;;;4934088;29;19938;-43
2023/11/29 06:07:31;;;;;;;;;;;;;;;;;;4940493;29;19911;-42
2023/11/29 06:09:58;;;;;;;;;;;;;;;;;;4954088;29;19969;-42
2023/11/29 06:12:24;;;;;;;;;;;;;;;;;;4954328;28;19977;-43
2023/11/29 06:14:49;;;;;;;;;;;;;;;;;;4953865;29;20381;-43
2023/11/29 06:17:15;;;;;;;;;;;;;;;;;;4954123;29;19911;-42
2023/11/29 06:19:44;;;;;;;;;;;;;;;;;;4953859;29;19910;-41
2023/11/29 06:22:10;;;;;;;;;;;;;;;;;;4953140;28;19911;-41
2023/11/29 06:24:37;;;;;;;;;;;;;;;;;;4954131;29;19921;-41
2023/11/29 06:27:03;;;;;;;;;;;;;;;;;;4953923;28;19910;-41
2023/11/29 06:29:31;;;;;;;;;;;;;;;;;;4953827;29;20405;-42
2023/11/29 06:31:56;;;;;;;;;;;;;;;;;;4951046;28;19919;-42
2023/11/29 06:34:22;;;;;;;;;;;;;;;;;;4953629;29;20377;-42
2023/11/29 06:36:49;;;;;;;;;;;;;;;;;;4953656;29;19953;-41
2023/11/29 06:39:17;;;;;;;;;;;;;;;;;;4950744;28;20445;-42
2023/11/29 06:41:43;;;;;;;;;;;;;;;;;;4943291;28;19965;-42
2023/11/29 06:44:09;;;;;;;;;;;;;;;;;;4934643;29;20382;-42
2023/11/29 06:46:35;;;;;;;;;;;;;;;;;;4934355;29;19911;-42
2023/11/29 06:49:01;;;;;;;;;;;;;;;;;;4934081;29;19940;-42
2023/11/29 06:51:28;;;;;;;;;;;;;;;;;;4933901;29;19974;-42
2023/11/29 06:53:54;;;;;;;;;;;;;;;;;;4933114;29;19941;-42
2023/11/29 06:56:20;;;;;;;;;;;;;;;;;;4934203;29;20374;-41
2023/11/29 06:58:46;;;;;;;;;;;;;;;;;;4943769;29;19910;-41
2023/11/29 07:01:12;;;;;;;;;;;;;;;;;;4937593;29;19926;-41
2023/11/29 07:03:38;;;;;;;;;;;;;;;;;;4946700;29;20334;-42
2023/11/29 07:06:03;;;;;;;;;;;;;;;;;;4933745;29;19965;-41
2023/11/29 07:08:31;;;;;;;;;;;;;;;;;;4933920;29;20424;-41
2023/11/29 07:10:58;;;;;;;;;;;;;;;;;;4933786;29;19915;-41
2023/11/29 07:13:24;;;;;;;;;;;;;;;;;;4932925;29;20017;-42
2023/11/29 07:15:56;;;;;;;;;;;;;;;;;;4932254;29;20620;-41
2023/11/29 07:18:21;;;;;;;;;;;;;;;;;;4922161;29;19911;-41
2023/11/29 07:20:47;;;;;;;;;;;;;;;;;;4941353;29;19921;-41
2023/11/29 07:23:13;;;;;;;;;;;;;;;;;;4948388;29;20453;-41
2023/11/29 07:25:39;;;;;;;;;;;;;;;;;;4931278;29;19915;-41
2023/11/29 07:28:05;;;;;;;;;;;;;;;;;;4930619;29;19950;-41
2023/11/29 07:30:32;;;;;;;;;;;;;;;;;;4931717;29;19915;-41
2023/11/29 07:32:57;;;;;;;;;;;;;;;;;;4941487;29;19950;-41
2023/11/29 07:35:23;;;;;;;;;;;;;;;;;;4935190;29;19957;-42
2023/11/29 07:37:49;;;;;;;;;;;;;;;;;;4935435;29;20297;-41
2023/11/29 07:40:15;;;;;;;;;;;;;;;;;;4929988;29;19995;-42
2023/11/29 07:42:41;;;;;;;;;;;;;;;;;;4932117;29;19915;-41
2023/11/29 07:45:07;;;;;;;;;;;;;;;;;;4930175;29;19946;-41
2023/11/29 07:47:33;;;;;;;;;;;;;;;;;;4924682;29;20294;-41
2023/11/29 07:49:59;;;;;;;;;;;;;;;;;;4930488;29;19921;-42
2023/11/29 07:52:24;;;;;;;;;;;;;;;;;;4931396;29;19919;-41
2023/11/29 07:54:50;;;;;;;;;;;;;;;;;;4931268;29;19942;-41
2023/11/29 07:57:16;;;;;;;;;;;;;;;;;;4929100;29;20301;-42
2023/11/29 07:59:44;;;;;;;;;;;;;;;;;;4928149;29;20496;-42
2023/11/29 08:02:10;;;;;;;;;;;;;;;;;;4931327;29;19922;-43
2023/11/29 08:04:36;;;;;;;;;;;;;;;;;;4930476;29;19970;-42
2023/11/29 08:07:02;;;;;;;;;;;;;;;;;;4923079;29;19918;-41
2023/11/29 08:09:28;;;;;;;;;;;;;;;;;;4932267;29;20405;-42
2023/11/29 08:11:54;;;;;;;;;;;;;;;;;;4935807;29;19919;-42
2023/11/29 08:14:20;;;;;;;;;;;;;;;;;;4935716;29;19910;-42
2023/11/29 08:16:46;;;;;;;;;;;;;;;;;;4936739;29;19958;-42
2023/11/29 08:19:12;;;;;;;;;;;;;;;;;;4936245;29;19911;-42
2023/11/29 08:21:37;;;;;;;;;;;;;;;;;;4935555;29;19922;-42
2023/11/29 08:24:03;;;;;;;;;;;;;;;;;;4935038;29;19918;-41
2023/11/29 08:26:29;;;;;;;;;;;;;;;;;;4936001;29;19958;-42
2023/11/29 08:28:55;;;;;;;;;;;;;;;;;;4935916;29;20382;-42
2023/11/29 08:31:21;;;;;;;;;;;;;;;;;;4919278;29;19920;-42
2023/11/29 08:33:47;;;;;;;;;;;;;;;;;;4933838;29;19915;-42
2023/11/29 08:36:13;;;;;;;;;;;;;;;;;;4935736;29;19911;-42
2023/11/29 08:38:39;;;;;;;;;;;;;;;;;;4935726;29;19915;-42
2023/11/29 08:41:05;;;;;;;;;;;;;;;;;;4935955;29;20350;-42
2023/11/29 08:43:31;;;;;;;;;;;;;;;;;;4935312;29;19911;-42
2023/11/29 08:45:57;;;;;;;;;;;;;;;;;;4934775;29;19974;-42
2023/11/29 08:48:22;;;;;;;;;;;;;;;;;;4934695;29;20014;-42
2023/11/29 08:50:49;;;;;;;;;;;;;;;;;;4933740;29;19941;-42
2023/11/29 08:53:15;;;;;;;;;;;;;;;;;;4931870;29;20398;-41
2023/11/29 08:55:42;;;;;;;;;;;;;;;;;;4932890;29;19921;-42
2023/11/29 08:58:09;;;;;;;;;;;;;;;;;;4941954;28;19921;-42
2023/11/29 09:00:34;;;;;;;;;;;;;;;;;;4953325;28;20014;-42
2023/11/29 09:03:00;;;;;;;;;;;;;;;;;;4953838;29;20005;-42
2023/11/29 09:05:27;;;;;;;;;;;;;;;;;;4952269;29;20401;-42
2023/11/29 09:07:53;;;;;;;;;;;;;;;;;;4953547;28;20358;-42
2023/11/29 09:10:19;;;;;;;;;;;;;;;;;;4953631;29;19921;-42
2023/11/29 09:12:45;;;;;;;;;;;;;;;;;;4953421;29;20020;-42
2023/11/29 09:15:11;;;;;;;;;;;;;;;;;;4953666;28;19910;-42
2023/11/29 09:17:40;;;;;;;;;;;;;;;;;;4938078;29;19910;-42
2023/11/29 09:20:06;;;;;;;;;;;;;;;;;;4934313;29;19911;-42
2023/11/29 09:22:32;;;;;;;;;;;;;;;;;;4947228;29;19917;-42
2023/11/29 09:24:59;;;;;;;;;;;;;;;;;;4954078;29;19917;-42
2023/11/29 09:27:25;;;;;;;;;;;;;;;;;;4953161;28;20001;-42
2023/11/29 09:29:51;;;;;;;;;;;;;;;;;;4953102;29;20409;-42
2023/11/29 09:32:17;;;;;;;;;;;;;;;;;;4953075;29;19921;-42
2023/11/29 09:34:43;;;;;;;;;;;;;;;;;;4953334;28;19932;-42
2023/11/29 09:37:09;;;;;;;;;;;;;;;;;;4953122;29;20009;-42
2023/11/29 09:39:35;;;;;;;;;;;;;;;;;;4952880;29;19911;-42
2023/11/29 09:42:02;;;;;;;;;;;;;;;;;;4953718;29;19918;-42
2023/11/29 09:44:28;;;;;;;;;;;;;;;;;;4953137;28;20416;-42
2023/11/29 09:46:54;;;;;;;;;;;;;;;;;;4951415;29;19914;-42
2023/11/29 09:49:20;;;;;;;;;;;;;;;;;;4952940;29;20289;-42
2023/11/29 09:51:46;;;;;;;;;;;;;;;;;;4952721;29;19921;-42
2023/11/29 09:54:12;;;;;;;;;;;;;;;;;;4952979;28;19911;-42
2023/11/29 09:56:38;;;;;;;;;;;;;;;;;;4952700;29;20367;-42
2023/11/29 09:59:04;;;;;;;;;;;;;;;;;;4953190;29;19914;-42
2023/11/29 10:01:29;;;;;;;;;;;;;;;;;;4952944;29;19965;-42
2023/11/29 10:03:55;;;;;;;;;;;;;;;;;;4952582;29;19982;-42
2023/11/29 10:06:21;;;;;;;;;;;;;;;;;;4952616;29;19918;-42
2023/11/29 10:08:47;;;;;;;;;;;;;;;;;;4952361;29;19933;-42
2023/11/29 10:11:13;;;;;;;;;;;;;;;;;;4952537;29;19922;-42
2023/11/29 10:13:39;;;;;;;;;;;;;;;;;;4952450;29;20377;-43
2023/11/29 10:16:05;;;;;;;;;;;;;;;;;;4952711;28;19917;-42
2023/11/29 10:18:31;;;;;;;;;;;;;;;;;;4953132;29;19910;-42
2023/11/29 10:20:57;;;;;;;;;;;;;;;;;;4952287;29;19910;-42
2023/11/29 10:23:24;;;;;;;;;;;;;;;;;;4952193;29;19945;-42
2023/11/29 10:25:50;;;;;;;;;;;;;;;;;;4952246;28;20484;-42
2023/11/29 10:28:16;;;;;;;;;;;;;;;;;;4952373;29;19911;-42
2023/11/29 10:30:42;;;;;;;;;;;;;;;;;;4951696;28;19914;-42
2023/11/29 10:33:09;;;;;;;;;;;;;;;;;;4951710;29;19911;-43
2023/11/29 10:35:35;;;;;;;;;;;;;;;;;;4952751;28;19958;-42
2023/11/29 10:38:01;;;;;;;;;;;;;;;;;;4952126;29;19910;-42
2023/11/29 10:40:27;;;;;;;;;;;;;;;;;;4951892;29;20282;-42
2023/11/29 10:42:53;;;;;;;;;;;;;;;;;;4951870;28;20488;-43
2023/11/29 10:45:20;;;;;;;;;;;;;;;;;;4952094;28;19941;-42
2023/11/29 10:47:46;;;;;;;;;;;;;;;;;;4951705;28;19911;-43
2023/11/29 10:50:12;;;;;;;;;;;;;;;;;;4951828;29;19918;-42
2023/11/29 10:52:39;;;;;;;;;;;;;;;;;;4951617;29;20050;-40
2023/11/29 10:55:05;;;;;;;;;;;;;;;;;;4952379;28;19910;-40
2023/11/29 10:57:31;;;;;;;;;;;;;;;;;;4951775;28;19941;-40
2023/11/29 10:59:57;;;;;;;;;;;;;;;;;;4951410;29;20140;-40
2023/11/29 11:02:23;;;;;;;;;;;;;;;;;;4951532;29;20273;-40
2023/11/29 11:04:49;;;;;;;;;;;;;;;;;;4951825;28;19910;-40
2023/11/29 11:07:15;;;;;;;;;;;;;;;;;;4951369;29;20401;-40
2023/11/29 11:09:41;;;;;;;;;;;;;;;;;;4951333;29;19993;-40
2023/11/29 11:12:07;;;;;;;;;;;;;;;;;;4951871;29;19921;-40
2023/11/29 11:14:33;;;;;;;;;;;;;;;;;;4938718;29;19919;-40
2023/11/29 11:16:59;;;;;;;;;;;;;;;;;;4913439;29;20394;-40
2023/11/29 11:19:25;;;;;;;;;;;;;;;;;;4924763;29;19915;-41
2023/11/29 11:21:51;;;;;;;;;;;;;;;;;;4951199;29;20468;-41
2023/11/29 11:24:16;;;;;;;;;;;;;;;;;;4951186;29;19973;-40
2023/11/29 11:26:43;;;;;;;;;;;;;;;;;;4951820;29;19918;-40
2023/11/29 11:29:08;;;;;;;;;;;;;;;;;;4951329;28;19965;-40
2023/11/29 11:31:34;;;;;;;;;;;;;;;;;;4951072;29;19919;-40
2023/11/29 11:34:00;;;;;;;;;;;;;;;;;;4951178;29;20361;-43
2023/11/29 11:36:26;;;;;;;;;;;;;;;;;;4950754;29;19914;-42
2023/11/29 11:38:52;;;;;;;;;;;;;;;;;;4950968;29;20009;-43
2023/11/29 11:41:18;;;;;;;;;;;;;;;;;;4951072;29;20405;-43
2023/11/29 11:43:44;;;;;;;;;;;;;;;;;;4951443;29;19946;-42
2023/11/29 11:46:10;;;;;;;;;;;;;;;;;;4951099;29;19910;-42
2023/11/29 11:48:35;;;;;;;;;;;;;;;;;;4950883;29;20374;-42
2023/11/29 11:51:01;;;;;;;;;;;;;;;;;;4950750;29;20016;-40
2023/11/29 11:53:27;;;;;;;;;;;;;;;;;;4950659;29;19911;-40
2023/11/29 11:55:53;;;;;;;;;;;;;;;;;;4928480;29;19915;-40
2023/11/29 11:58:19;;;;;;;;;;;;;;;;;;4926724;29;19914;-40
2023/11/29 12:00:45;;;;;;;;;;;;;;;;;;4939111;29;19915;-41
2023/11/29 12:03:11;;;;;;;;;;;;;;;;;;4936437;29;20350;-40
2023/11/29 12:05:38;;;;;;;;;;;;;;;;;;4930781;29;19918;-40
2023/11/29 12:08:05;;;;;;;;;;;;;;;;;;4930018;29;19919;-42
2023/11/29 12:10:31;;;;;;;;;;;;;;;;;;4929793;29;19933;-41
2023/11/29 12:12:57;;;;;;;;;;;;;;;;;;4930462;29;20003;-40
2023/11/29 12:15:23;;;;;;;;;;;;;;;;;;4934551;29;19915;-40
2023/11/29 12:17:49;;;;;;;;;;;;;;;;;;4932574;29;19923;-40
2023/11/29 12:20:16;;;;;;;;;;;;;;;;;;4931315;29;20021;-41
2023/11/29 12:22:42;;;;;;;;;;;;;;;;;;4930135;29;20390;-42
2023/11/29 12:25:08;;;;;;;;;;;;;;;;;;4929797;29;19997;-42
2023/11/29 12:27:35;;;;;;;;;;;;;;;;;;4932320;29;19930;-41
2023/11/29 12:30:01;;;;;;;;;;;;;;;;;;4931323;29;19918;-41
2023/11/29 12:32:30;;;;;;;;;;;;;;;;;;4929113;29;20386;-41
2023/11/29 12:34:59;;;;;;;;;;;;;;;;;;4929397;29;19923;-41
2023/11/29 12:37:26;;;;;;;;;;;;;;;;;;4933067;29;20309;-41
2023/11/29 12:39:52;;;;;;;;;;;;;;;;;;4930898;29;19915;-42
2023/11/29 12:42:18;;;;;;;;;;;;;;;;;;4930638;29;19922;-41
2023/11/29 12:44:44;;;;;;;;;;;;;;;;;;4930291;29;19926;-40
2023/11/29 12:47:10;;;;;;;;;;;;;;;;;;4929747;29;20381;-41
2023/11/29 12:49:36;;;;;;;;;;;;;;;;;;4930758;29;19948;-42
2023/11/29 12:52:03;;;;;;;;;;;;;;;;;;4928699;29;19926;-42
2023/11/29 12:54:30;;;;;;;;;;;;;;;;;;4931362;29;19918;-43
2023/11/29 12:56:56;;;;;;;;;;;;;;;;;;4934050;29;19911;-42
2023/11/29 12:59:28;;;;;;;;;;;;;;;;;;4931793;29;20297;-42
2023/11/29 13:01:54;;;;;;;;;;;;;;;;;;4932273;29;19923;-41
2023/11/29 13:04:19;;;;;;;;;;;;;;;;;;4935665;29;19993;-41
2023/11/29 13:06:45;;;;;;;;;;;;;;;;;;4933271;29;19914;-41
2023/11/29 13:09:12;;;;;;;;;;;;;;;;;;4934082;29;19915;-41
2023/11/29 13:11:39;;;;;;;;;;;;;;;;;;4934498;29;20010;-41
2023/11/29 13:14:06;;;;;;;;;;;;;;;;;;4933837;29;19919;-41
2023/11/29 13:16:32;;;;;;;;;;;;;;;;;;4933092;29;19921;-41
2023/11/29 13:18:58;;;;;;;;;;;;;;;;;;4932835;29;19910;-41
2023/11/29 13:21:24;;;;;;;;;;;;;;;;;;4933341;29;20294;-41
2023/11/29 13:23:51;;;;;;;;;;;;;;;;;;4932856;29;19939;-41
2023/11/29 13:26:17;;;;;;;;;;;;;;;;;;4932948;29;19954;-41
2023/11/29 13:28:44;;;;;;;;;;;;;;;;;;4933419;29;19949;-41
2023/11/29 13:31:10;;;;;;;;;;;;;;;;;;4932861;29;19915;-41
2023/11/29 13:33:36;;;;;;;;;;;;;;;;;;4932527;29;20404;-42
2023/11/29 13:36:02;;;;;;;;;;;;;;;;;;4932880;29;20091;-43
2023/11/29 13:38:29;;;;;;;;;;;;;;;;;;4932671;29;19911;-41
2023/11/29 13:40:55;;;;;;;;;;;;;;;;;;4932914;29;20480;-41
2023/11/29 13:43:20;;;;;;;;;;;;;;;;;;4931580;29;19911;-41
2023/11/29 13:45:48;;;;;;;;;;;;;;;;;;4932483;29;19957;-42
2023/11/29 13:48:13;;;;;;;;;;;;;;;;;;4933168;29;19933;-42
2023/11/29 13:50:39;;;;;;;;;;;;;;;;;;4932415;29;19915;-42
2023/11/29 13:53:05;;;;;;;;;;;;;;;;;;4932415;29;19911;-41
2023/11/29 13:55:31;;;;;;;;;;;;;;;;;;4932415;29;19911;-41
2023/11/29 13:57:58;;;;;;;;;;;;;;;;;;4932681;29;20380;-41
2023/11/29 14:00:25;;;;;;;;;;;;;;;;;;4930785;29;20363;-41
2023/11/29 14:02:51;;;;;;;;;;;;;;;;;;4932263;29;19911;-41
2023/11/29 14:05:17;;;;;;;;;;;;;;;;;;4931897;29;19918;-41
2023/11/29 14:07:43;;;;;;;;;;;;;;;;;;4931901;29;20465;-41
2023/11/29 14:10:09;;;;;;;;;;;;;;;;;;4931947;29;19990;-41
2023/11/29 14:12:35;;;;;;;;;;;;;;;;;;4932237;29;19915;-41
2023/11/29 14:15:01;;;;;;;;;;;;;;;;;;4931626;29;19911;-42
2023/11/29 14:17:27;;;;;;;;;;;;;;;;;;4932144;29;19918;-41
2023/11/29 14:19:53;;;;;;;;;;;;;;;;;;4931845;29;20441;-41
2023/11/29 14:22:22;;;;;;;;;;;;;;;;;;4932011;29;20378;-41
2023/11/29 14:24:48;;;;;;;;;;;;;;;;;;4931801;29;19933;-42
2023/11/29 14:27:15;;;;;;;;;;;;;;;;;;4932704;29;19934;-42
2023/11/29 14:29:40;;;;;;;;;;;;;;;;;;4931506;29;19911;-41
2023/11/29 14:32:06;;;;;;;;;;;;;;;;;;4931870;29;20131;-42
2023/11/29 14:34:32;;;;;;;;;;;;;;;;;;4931381;29;19922;-42
2023/11/29 14:36:58;;;;;;;;;;;;;;;;;;4943658;29;20429;-42
2023/11/29 14:39:24;;;;;;;;;;;;;;;;;;4932766;29;19915;-42
2023/11/29 14:41:50;;;;;;;;;;;;;;;;;;4940583;29;19915;-43
2023/11/29 14:44:16;;;;;;;;;;;;;;;;;;4938078;29;19922;-42
2023/11/29 14:46:42;;;;;;;;;;;;;;;;;;4946212;29;19920;-43
2023/11/29 14:49:08;;;;;;;;;;;;;;;;;;4951671;29;19917;-42
2023/11/29 14:51:34;;;;;;;;;;;;;;;;;;4937576;28;19989;-41
2023/11/29 14:54:03;;;;;;;;;;;;;;;;;;4932180;29;19954;-42
2023/11/29 14:56:29;;;;;;;;;;;;;;;;;;4932521;29;19950;-41
2023/11/29 14:58:55;;;;;;;;;;;;;;;;;;4932281;29;20402;-42
2023/11/29 15:01:21;;;;;;;;;;;;;;;;;;4932407;29;19918;-42
2023/11/29 15:03:47;;;;;;;;;;;;;;;;;;4932691;29;20366;-42
2023/11/29 15:06:13;;;;;;;;;;;;;;;;;;4932425;29;19991;-42
2023/11/29 15:08:38;;;;;;;;;;;;;;;;;;4932303;29;19917;-42
2023/11/29 15:11:04;;;;;;;;;;;;;;;;;;4931950;29;20622;-41
2023/11/29 15:13:30;;;;;;;;;;;;;;;;;;4931962;29;19918;-42
2023/11/29 15:15:56;;;;;;;;;;;;;;;;;;4932087;29;19962;-42
2023/11/29 15:18:22;;;;;;;;;;;;;;;;;;4931932;29;19966;-42
2023/11/29 15:20:48;;;;;;;;;;;;;;;;;;4931716;29;20005;-42
2023/11/29 15:23:14;;;;;;;;;;;;;;;;;;4932272;29;19926;-41
2023/11/29 15:25:40;;;;;;;;;;;;;;;;;;4931595;29;20001;-41
2023/11/29 15:28:06;;;;;;;;;;;;;;;;;;4931567;29;20043;-41
2023/11/29 15:30:31;;;;;;;;;;;;;;;;;;4931758;29;19911;-41
2023/11/29 15:32:57;;;;;;;;;;;;;;;;;;4932024;29;19915;-41
2023/11/29 15:35:23;;;;;;;;;;;;;;;;;;4930018;29;19950;-42
2023/11/29 15:37:49;;;;;;;;;;;;;;;;;;4930642;29;19911;-43
2023/11/29 15:40:15;;;;;;;;;;;;;;;;;;4930977;29;19993;-41
2023/11/29 15:42:41;;;;;;;;;;;;;;;;;;4930548;29;20473;-41
2023/11/29 15:45:07;;;;;;;;;;;;;;;;;;4930508;29;19918;-41
2023/11/29 15:47:33;;;;;;;;;;;;;;;;;;4930556;29;20309;-41
2023/11/29 15:49:59;;;;;;;;;;;;;;;;;;4930345;29;20236;-41
2023/11/29 15:52:25;;;;;;;;;;;;;;;;;;4930346;29;20350;-41
2023/11/29 15:54:51;;;;;;;;;;;;;;;;;;4930411;29;19918;-41
2023/11/29 15:57:17;;;;;;;;;;;;;;;;;;4930197;29;20017;-41
2023/11/29 15:59:43;;;;;;;;;;;;;;;;;;4930934;29;20002;-41
2023/11/29 16:02:08;;;;;;;;;;;;;;;;;;4930190;29;19926;-41
2023/11/29 16:04:34;;;;;;;;;;;;;;;;;;4930300;29;20297;-41
2023/11/29 16:07:00;;;;;;;;;;;;;;;;;;4930545;29;20382;-41
2023/11/29 16:09:26;;;;;;;;;;;;;;;;;;4930339;29;19915;-41
2023/11/29 16:11:52;;;;;;;;;;;;;;;;;;4930035;29;19921;-41
2023/11/29 16:14:18;;;;;;;;;;;;;;;;;;4930447;29;20308;-41
2023/11/29 16:16:44;;;;;;;;;;;;;;;;;;4930857;29;19950;-41
2023/11/29 16:19:10;;;;;;;;;;;;;;;;;;4929053;29;19911;-41
2023/11/29 16:21:36;;;;;;;;;;;;;;;;;;4930316;29;19907;-41
2023/11/29 16:24:02;;;;;;;;;;;;;;;;;;4930459;29;19911;-41
2023/11/29 16:26:28;;;;;;;;;;;;;;;;;;4929837;29;19915;-41
2023/11/29 16:28:54;;;;;;;;;;;;;;;;;;4930270;29;19994;-41
2023/11/29 16:31:20;;;;;;;;;;;;;;;;;;4933345;29;20537;-41
2023/11/29 16:33:45;;;;;;;;;;;;;;;;;;4934553;29;19910;-41
2023/11/29 16:36:11;;;;;;;;;;;;;;;;;;4934247;29;20294;-42
2023/11/29 16:38:37;;;;;;;;;;;;;;;;;;4933565;29;19918;-41
2023/11/29 16:41:03;;;;;;;;;;;;;;;;;;4933418;29;20006;-41
2023/11/29 16:43:29;;;;;;;;;;;;;;;;;;4933747;29;19998;-41
2023/11/29 16:45:55;;;;;;;;;;;;;;;;;;4933668;29;19946;-41
2023/11/29 16:48:21;;;;;;;;;;;;;;;;;;4933652;29;19911;-41
2023/11/29 16:50:47;;;;;;;;;;;;;;;;;;4933321;29;19914;-41
2023/11/29 16:53:13;;;;;;;;;;;;;;;;;;4934200;29;19919;-41
2023/11/29 16:55:38;;;;;;;;;;;;;;;;;;4933237;29;19942;-41
2023/11/29 16:58:04;;;;;;;;;;;;;;;;;;4933410;29;19919;-41
2023/11/29 17:00:30;;;;;;;;;;;;;;;;;;4933107;29;19954;-41
2023/11/29 17:02:56;;;;;;;;;;;;;;;;;;4933365;29;19911;-41
2023/11/29 17:05:22;;;;;;;;;;;;;;;;;;4933300;29;19966;-41
2023/11/29 17:07:48;;;;;;;;;;;;;;;;;;4930557;29;20318;-41
2023/11/29 17:10:15;;;;;;;;;;;;;;;;;;4931316;29;20424;-41
2023/11/29 17:12:40;;;;;;;;;;;;;;;;;;4933177;29;19915;-41
2023/11/29 17:15:06;;;;;;;;;;;;;;;;;;4932592;29;19942;-42
2023/11/29 17:17:32;;;;;;;;;;;;;;;;;;4932202;29;20013;-41
2023/11/29 17:19:59;;;;;;;;;;;;;;;;;;4932499;29;20013;-41
2023/11/29 17:22:25;;;;;;;;;;;;;;;;;;4933119;29;19917;-41
2023/11/29 17:24:50;;;;;;;;;;;;;;;;;;4931597;29;19992;-42
2023/11/29 17:27:16;;;;;;;;;;;;;;;;;;4924333;29;19922;-41
2023/11/29 17:29:42;;;;;;;;;;;;;;;;;;4930883;29;19965;-42
2023/11/29 17:32:08;;;;;;;;;;;;;;;;;;4933595;29;19969;-42
2023/11/29 17:34:34;;;;;;;;;;;;;;;;;;4933321;29;19914;-42
2023/11/29 17:37:00;;;;;;;;;;;;;;;;;;4932384;29;19915;-42
2023/11/29 17:39:26;;;;;;;;;;;;;;;;;;4931013;29;20933;-42
2023/11/29 17:41:53;;;;;;;;;;;;;;;;;;4932322;29;20327;-42
2023/11/29 17:44:19;;;;;;;;;;;;;;;;;;4933388;29;19975;-42
2023/11/29 17:46:45;;;;;;;;;;;;;;;;;;4932657;29;20338;-42
2023/11/29 17:49:11;;;;;;;;;;;;;;;;;;4932055;29;19915;-43
2023/11/29 17:51:37;;;;;;;;;;;;;;;;;;4933137;29;20396;-42
2023/11/29 17:54:03;;;;;;;;;;;;;;;;;;4933151;29;19911;-42
2023/11/29 17:56:29;;;;;;;;;;;;;;;;;;4930686;29;19918;-42
2023/11/29 17:58:55;;;;;;;;;;;;;;;;;;4931930;29;19942;-43
2023/11/29 18:01:20;;;;;;;;;;;;;;;;;;4932288;29;19922;-42
2023/11/29 18:03:46;;;;;;;;;;;;;;;;;;4931086;29;19930;-43
2023/11/29 18:06:12;;;;;;;;;;;;;;;;;;4933190;29;19911;-43
2023/11/29 18:08:38;;;;;;;;;;;;;;;;;;4931887;29;20382;-43
2023/11/29 18:11:04;;;;;;;;;;;;;;;;;;4928845;29;20426;-42
2023/11/29 18:13:32;;;;;;;;;;;;;;;;;;4934352;28;21362;-42
2023/11/29 18:15:58;;;;;;;;;;;;;;;;;;4931718;29;19915;-43
2023/11/29 18:18:24;;;;;;;;;;;;;;;;;;4929352;29;19926;-43
2023/11/29 18:20:53;;;;;;;;;;;;;;;;;;4929725;29;19923;-43
2023/11/29 18:23:19;;;;;;;;;;;;;;;;;;4931637;29;19911;-43
2023/11/29 18:25:45;;;;;;;;;;;;;;;;;;4931348;29;20290;-43
2023/11/29 18:28:11;;;;;;;;;;;;;;;;;;4923776;29;19915;-43
2023/11/29 18:30:37;;;;;;;;;;;;;;;;;;4929216;29;19915;-43
2023/11/29 18:33:03;;;;;;;;;;;;;;;;;;4927723;29;19957;-43
2023/11/29 18:35:29;;;;;;;;;;;;;;;;;;4928693;29;19981;-44
2023/11/29 18:37:55;;;;;;;;;;;;;;;;;;4929559;29;20281;-42
2023/11/29 18:40:21;;;;;;;;;;;;;;;;;;4926844;29;19914;-43
2023/11/29 18:42:47;;;;;;;;;;;;;;;;;;4926418;29;19922;-41
2023/11/29 18:45:13;;;;;;;;;;;;;;;;;;4928196;29;21244;-42
2023/11/29 18:47:40;;;;;;;;;;;;;;;;;;4926537;29;19974;-43
2023/11/29 18:50:06;;;;;;;;;;;;;;;;;;4927126;29;20338;-43
2023/11/29 18:52:32;;;;;;;;;;;;;;;;;;4925970;29;19919;-42
2023/11/29 18:54:58;;;;;;;;;;;;;;;;;;4927362;29;19946;-43
2023/11/29 18:57:25;;;;;;;;;;;;;;;;;;4929004;29;19919;-43
2023/11/29 18:59:52;;;;;;;;;;;;;;;;;;4931805;29;19914;-43
2023/11/29 19:02:18;;;;;;;;;;;;;;;;;;4924596;29;20155;-43
2023/11/29 19:04:44;;;;;;;;;;;;;;;;;;4927373;29;19954;-42
2023/11/29 19:07:10;;;;;;;;;;;;;;;;;;4927693;29;19970;-43
2023/11/29 19:09:36;;;;;;;;;;;;;;;;;;4927490;29;19922;-43
2023/11/29 19:12:04;;;;;;;;;;;;;;;;;;4928485;29;19954;-43
2023/11/29 19:14:30;;;;;;;;;;;;;;;;;;4928644;29;19915;-42
2023/11/29 19:16:56;;;;;;;;;;;;;;;;;;4926456;29;20366;-42
2023/11/29 19:19:22;;;;;;;;;;;;;;;;;;4928317;29;20419;-42
2023/11/29 19:21:47;;;;;;;;;;;;;;;;;;4926629;29;19921;-42
2023/11/29 19:24:13;;;;;;;;;;;;;;;;;;4927268;29;19942;-43
2023/11/29 19:26:39;;;;;;;;;;;;;;;;;;4919900;29;20430;-42
2023/11/29 19:29:05;;;;;;;;;;;;;;;;;;4921931;29;20511;-43
2023/11/29 19:31:31;;;;;;;;;;;;;;;;;;4922232;29;19935;-43
2023/11/29 19:33:57;;;;;;;;;;;;;;;;;;4928226;29;20309;-43
2023/11/29 19:36:23;;;;;;;;;;;;;;;;;;4926659;29;19922;-43
2023/11/29 19:38:49;;;;;;;;;;;;;;;;;;4933829;29;19931;-43
2023/11/29 19:41:15;;;;;;;;;;;;;;;;;;4926984;29;19915;-42
2023/11/29 19:43:40;;;;;;;;;;;;;;;;;;4928427;29;20308;-42
2023/11/29 19:46:06;;;;;;;;;;;;;;;;;;4925952;29;19966;-42
2023/11/29 19:48:32;;;;;;;;;;;;;;;;;;4927068;29;20409;-42
2023/11/29 19:50:58;;;;;;;;;;;;;;;;;;4918305;29;19923;-41
2023/11/29 19:53:24;;;;;;;;;;;;;;;;;;4927840;29;19919;-42
2023/11/29 19:55:50;;;;;;;;;;;;;;;;;;4929555;29;19911;-43
2023/11/29 19:58:16;;;;;;;;;;;;;;;;;;4926852;29;19973;-43
2023/11/29 20:00:41;;;;;;;;;;;;;;;;;;4927066;29;19921;-42
2023/11/29 20:03:07;;;;;;;;;;;;;;;;;;4926997;29;19962;-43
2023/11/29 20:05:33;;;;;;;;;;;;;;;;;;4946355;29;19980;-42
2023/11/29 20:08:01;;;;;;;;;;;;;;;;;;4930512;29;19925;-42
2023/11/29 20:10:29;;;;;;;;;;;;;;;;;;4931764;29;20274;-42
2023/11/29 20:12:55;;;;;;;;;;;;;;;;;;4929531;29;19973;-44
2023/11/29 20:15:22;;;;;;;;;;;;;;;;;;4931663;29;20318;-42
2023/11/29 20:17:49;;;;;;;;;;;;;;;;;;4934076;28;20365;-42
2023/11/29 20:20:15;;;;;;;;;;;;;;;;;;4932896;29;19959;-42
2023/11/29 20:22:41;;;;;;;;;;;;;;;;;;4933807;29;19918;-46
2023/11/29 20:25:07;;;;;;;;;;;;;;;;;;4931769;29;19910;-42
2023/11/29 20:27:34;;;;;;;;;;;;;;;;;;4930950;29;20009;-43
2023/11/29 20:30:00;;;;;;;;;;;;;;;;;;4930355;29;19938;-43
2023/11/29 20:32:28;;;;;;;;;;;;;;;;;;4931850;29;19923;-43
2023/11/29 20:34:53;;;;;;;;;;;;;;;;;;4932709;29;19919;-42
2023/11/29 20:37:19;;;;;;;;;;;;;;;;;;4941509;29;20291;-43
2023/11/29 20:39:45;;;;;;;;;;;;;;;;;;4930042;29;19915;-43
2023/11/29 20:42:12;;;;;;;;;;;;;;;;;;4931707;29;19922;-44
2023/11/29 20:44:38;;;;;;;;;;;;;;;;;;4930685;29;19937;-42
2023/11/29 20:47:04;;;;;;;;;;;;;;;;;;4931759;29;20393;-44
2023/11/29 20:49:30;;;;;;;;;;;;;;;;;;4944344;29;20029;-41
2023/11/29 20:51:56;;;;;;;;;;;;;;;;;;4932145;29;19993;-42
2023/11/29 20:54:22;;;;;;;;;;;;;;;;;;4929778;29;19919;-42
2023/11/29 20:56:47;;;;;;;;;;;;;;;;;;4931757;29;20421;-42
2023/11/29 20:59:13;;;;;;;;;;;;;;;;;;4932123;29;19915;-42
2023/11/29 21:01:39;;;;;;;;;;;;;;;;;;4931766;29;20394;-43
2023/11/29 21:04:05;;;;;;;;;;;;;;;;;;4930827;29;19992;-42
2023/11/29 21:06:31;;;;;;;;;;;;;;;;;;4929999;29;19915;-42
2023/11/29 21:08:57;;;;;;;;;;;;;;;;;;4934765;29;20286;-42
2023/11/29 21:11:23;;;;;;;;;;;;;;;;;;4929548;29;19978;-43
2023/11/29 21:13:49;;;;;;;;;;;;;;;;;;4930209;29;19961;-42
2023/11/29 21:16:15;;;;;;;;;;;;;;;;;;4927441;29;19922;-43
2023/11/29 21:18:41;;;;;;;;;;;;;;;;;;4924523;29;19946;-43
2023/11/29 21:21:07;;;;;;;;;;;;;;;;;;4931252;29;20533;-42
2023/11/29 21:23:33;;;;;;;;;;;;;;;;;;4930839;29;19915;-42
2023/11/29 21:25:58;;;;;;;;;;;;;;;;;;4915545;29;19919;-42
2023/11/29 21:28:24;;;;;;;;;;;;;;;;;;4928480;29;20010;-42
2023/11/29 21:30:50;;;;;;;;;;;;;;;;;;4928933;29;19915;-43
2023/11/29 21:33:16;;;;;;;;;;;;;;;;;;4935730;29;19931;-43
2023/11/29 21:35:42;;;;;;;;;;;;;;;;;;4949079;29;20219;-42
2023/11/29 21:38:08;;;;;;;;;;;;;;;;;;4931848;29;20282;-42
2023/11/29 21:40:34;;;;;;;;;;;;;;;;;;4930779;29;19922;-44
2023/11/29 21:43:00;;;;;;;;;;;;;;;;;;4930410;29;20405;-43
2023/11/29 21:45:25;;;;;;;;;;;;;;;;;;4927760;29;20298;-44
2023/11/29 21:47:51;;;;;;;;;;;;;;;;;;4925953;29;19915;-42
2023/11/29 21:50:17;;;;;;;;;;;;;;;;;;4928864;29;20451;-42
2023/11/29 21:52:43;;;;;;;;;;;;;;;;;;4931941;29;19961;-42
2023/11/29 21:55:09;;;;;;;;;;;;;;;;;;4942750;29;19915;-42
2023/11/29 21:57:35;;;;;;;;;;;;;;;;;;4948902;29;19940;-43
2023/11/29 22:00:02;;;;;;;;;;;;;;;;;;4950042;29;19910;-43
2023/11/29 22:02:28;;;;;;;;;;;;;;;;;;4950400;28;19918;-42
2023/11/29 22:04:54;;;;;;;;;;;;;;;;;;4931807;29;20009;-42
2023/11/29 22:07:20;;;;;;;;;;;;;;;;;;4931321;29;19989;-43
2023/11/29 22:09:46;;;;;;;;;;;;;;;;;;4931189;29;19986;-42
2023/11/29 22:12:11;;;;;;;;;;;;;;;;;;4931720;29;19914;-41
2023/11/29 22:14:37;;;;;;;;;;;;;;;;;;4930246;29;19911;-42
2023/11/29 22:17:03;;;;;;;;;;;;;;;;;;4944459;29;20021;-42
2023/11/29 22:19:29;;;;;;;;;;;;;;;;;;4930603;29;19910;-42
2023/11/29 22:21:55;;;;;;;;;;;;;;;;;;4931057;29;19911;-42
2023/11/29 22:24:21;;;;;;;;;;;;;;;;;;4929647;29;20271;-42
2023/11/29 22:26:47;;;;;;;;;;;;;;;;;;4928094;29;19911;-42
2023/11/29 22:29:13;;;;;;;;;;;;;;;;;;4930956;29;20107;-42
2023/11/29 22:31:39;;;;;;;;;;;;;;;;;;4946684;29;20306;-42
2023/11/29 22:34:05;;;;;;;;;;;;;;;;;;4949973;29;20441;-42
2023/11/29 22:36:31;;;;;;;;;;;;;;;;;;4949820;29;19961;-41
2023/11/29 22:38:57;;;;;;;;;;;;;;;;;;4946966;29;19965;-42